createdAt,value
2023-04-19T00:01:09.485Z,98864.31
2023-04-19T00:02:43.615Z,98856.34
2023-04-19T00:04:16.592Z,98857.28
2023-04-19T00:05:50.233Z,98861.66
2023-04-19T00:07:23.564Z,98852.88
2023-04-19T00:08:57.073Z,98858.25
2023-04-19T00:10:30.340Z,98854.03
2023-04-19T00:12:03.616Z,98853.09
2023-04-19T00:13:37.280Z,98843.50
2023-04-19T00:15:11.338Z,98842.78
2023-04-19T00:16:44.532Z,98849.09
2023-04-19T00:18:16.721Z,98841.38
2023-04-19T00:19:49.980Z,98839.81
2023-04-19T00:21:23.255Z,98839.97
2023-04-19T00:22:55.429Z,98831.22
2023-04-19T00:24:29.984Z,98835.19
2023-04-19T00:26:03.726Z,98831.91
2023-04-19T00:27:36.894Z,98838.63
2023-04-19T00:29:11.889Z,98828.16
2023-04-19T00:30:45.032Z,98827.47
2023-04-19T00:32:18.672Z,98833.91
2023-04-19T00:33:51.747Z,98834.94
2023-04-19T00:35:25.273Z,98827.34
2023-04-19T00:36:59.524Z,98835.06
2023-04-19T00:38:32.868Z,98833.34
2023-04-19T00:40:07.146Z,98837.66
2023-04-19T00:41:42.965Z,98841.94
2023-04-19T00:43:19.873Z,98829.63
2023-04-19T00:44:54.577Z,98840.34
2023-04-19T00:46:28.720Z,98835.38
2023-04-19T00:48:01.747Z,98842.22
2023-04-19T00:49:35.035Z,98843.88
2023-04-19T00:51:08.029Z,98841.09
2023-04-19T00:52:42.137Z,98846.38
2023-04-19T00:54:16.645Z,98841.94
2023-04-19T00:55:51.726Z,98841.94
2023-04-19T00:57:25.957Z,98844.50
2023-04-19T00:59:00.285Z,98842.66
2023-04-19T01:00:34.120Z,98841.03
2023-04-19T01:02:07.525Z,98837.50
2023-04-19T01:03:41.288Z,98836.94
2023-04-19T01:05:14.771Z,98830.06
2023-04-19T01:06:47.006Z,98834.56
2023-04-19T01:08:20.293Z,98827.78
2023-04-19T01:09:53.713Z,98829.47
2023-04-19T01:11:29.161Z,98831.28
2023-04-19T01:13:02.446Z,98837.22
2023-04-19T01:14:35.647Z,98838.78
2023-04-19T01:16:10.576Z,98826.50
2023-04-19T01:17:44.062Z,98832.56
2023-04-19T01:19:17.674Z,98828.06
2023-04-19T01:20:50.933Z,98827.94
2023-04-19T01:22:25.755Z,98835.06
2023-04-19T01:23:58.992Z,98824.13
2023-04-19T01:25:31.390Z,98825.19
2023-04-19T01:27:06.207Z,98828.78
2023-04-19T01:28:39.704Z,98832.63
2023-04-19T01:30:20.388Z,98825.63
2023-04-19T01:32:33.346Z,98823.50
2023-04-19T01:34:11.310Z,98824.38
2023-04-19T01:35:45.089Z,98820.03
2023-04-19T01:37:17.220Z,98819.28
2023-04-19T01:38:52.497Z,98823.50
2023-04-19T01:40:26.512Z,98823.44
2023-04-19T01:41:59.747Z,98829.75
2023-04-19T01:43:32.919Z,98820.03
2023-04-19T01:45:06.339Z,98815.75
2023-04-19T01:46:39.551Z,98815.56
2023-04-19T01:48:12.828Z,98817.31
2023-04-19T01:49:46.181Z,98819.91
2023-04-19T01:51:21.958Z,98820.59
2023-04-19T01:52:54.141Z,98818.75
2023-04-19T01:54:28.710Z,98815.38
2023-04-19T01:56:01.901Z,98811.72
2023-04-19T01:57:35.303Z,98816.88
2023-04-19T01:59:08.637Z,98813.16
2023-04-19T02:00:41.844Z,98816.63
2023-04-19T02:02:15.022Z,98815.75
2023-04-19T02:03:47.931Z,98813.03
2023-04-19T02:05:21.321Z,98825.31
2023-04-19T02:06:54.591Z,98818.97
2023-04-19T02:08:28.078Z,98814.59
2023-04-19T02:10:02.455Z,98806.81
2023-04-19T02:11:35.635Z,98816.19
2023-04-19T02:13:08.782Z,98814.41
2023-04-19T02:14:41.971Z,98817.88
2023-04-19T02:16:16.076Z,98817.75
2023-04-19T02:17:49.571Z,98821.19
2023-04-19T02:19:22.882Z,98821.19
2023-04-19T02:20:56.178Z,98825.56
2023-04-19T02:22:29.551Z,98821.34
2023-04-19T02:24:03.035Z,98817.25
2023-04-19T02:25:37.550Z,98818.06
2023-04-19T02:27:09.964Z,98823.47
2023-04-19T02:28:43.217Z,98816.38
2023-04-19T02:30:15.559Z,98825.19
2023-04-19T02:31:48.936Z,98825.19
2023-04-19T02:33:22.661Z,98817.88
2023-04-19T02:34:56.356Z,98822.28
2023-04-19T02:36:28.557Z,98821.34
2023-04-19T02:38:02.140Z,98814.34
2023-04-19T02:39:35.346Z,98819.75
2023-04-19T02:41:10.010Z,98823.19
2023-04-19T02:42:45.553Z,98821.47
2023-04-19T02:44:18.680Z,98818.75
2023-04-19T02:45:52.389Z,98814.34
2023-04-19T02:47:26.855Z,98809.81
2023-04-19T02:49:02.247Z,98815.91
2023-04-19T02:50:38.688Z,98810.88
2023-04-19T02:52:11.955Z,98819.91
2023-04-19T02:53:48.078Z,98817.38
2023-04-19T02:55:21.479Z,98811.19
2023-04-19T02:57:02.976Z,98807.81
2023-04-19T02:58:35.387Z,98810.53
2023-04-19T03:00:12.735Z,98806.16
2023-04-19T03:01:49.032Z,98810.88
2023-04-19T03:03:22.489Z,98808.44
2023-04-19T03:04:55.839Z,98803.28
2023-04-19T03:06:29.484Z,98814.00
2023-04-19T03:08:02.777Z,98803.41
2023-04-19T03:09:35.918Z,98809.56
2023-04-19T03:11:10.360Z,98815.75
2023-04-19T03:12:44.373Z,98806.88
2023-04-19T03:14:18.118Z,98809.56
2023-04-19T03:15:51.452Z,98808.88
2023-04-19T03:17:27.271Z,98805.56
2023-04-19T03:19:01.119Z,98802.13
2023-04-19T03:20:39.280Z,98807.38
2023-04-19T03:22:12.431Z,98806.38
2023-04-19T03:23:46.676Z,98807.00
2023-04-19T03:25:20.925Z,98805.44
2023-04-19T03:27:05.506Z,98806.88
2023-04-19T03:28:40.060Z,98810.28
2023-04-19T03:30:22.716Z,98806.00
2023-04-19T03:31:56.046Z,98816.72
2023-04-19T03:33:29.871Z,98806.13
2023-04-19T03:35:04.082Z,98804.56
2023-04-19T03:36:37.593Z,98802.78
2023-04-19T03:38:10.715Z,98810.84
2023-04-19T03:39:44.305Z,98814.16
2023-04-19T03:41:20.728Z,98812.41
2023-04-19T03:42:57.847Z,98810.44
2023-04-19T03:44:36.426Z,98822.75
2023-04-19T03:46:11.627Z,98807.13
2023-04-19T03:47:45.053Z,98810.59
2023-04-19T03:49:17.916Z,98812.28
2023-04-19T03:50:56.290Z,98817.72
2023-04-19T03:52:29.776Z,98824.81
2023-04-19T03:54:02.988Z,98819.84
2023-04-19T03:55:36.906Z,98824.13
2023-04-19T03:57:13.266Z,98822.22
2023-04-19T03:58:47.085Z,98823.94
2023-04-19T04:00:22.682Z,98821.56
2023-04-19T04:02:02.439Z,98812.97
2023-04-19T04:03:35.913Z,98818.13
2023-04-19T04:05:11.033Z,98828.41
2023-04-19T04:06:43.695Z,98817.13
2023-04-19T04:08:17.250Z,98823.13
2023-04-19T04:09:50.767Z,98819.72
2023-04-19T04:11:24.149Z,98825.78
2023-04-19T04:12:56.267Z,98820.59
2023-04-19T04:14:45.593Z,98824.88
2023-04-19T04:16:20.195Z,98825.72
2023-04-19T04:17:54.543Z,98825.72
2023-04-19T04:19:27.898Z,98823.94
2023-04-19T04:21:01.949Z,98831.88
2023-04-19T04:22:36.285Z,98824.56
2023-04-19T04:24:09.888Z,98829.75
2023-04-19T04:26:05.423Z,98826.03
2023-04-19T04:27:52.228Z,98823.13
2023-04-19T04:29:27.216Z,98834.47
2023-04-19T04:31:02.871Z,98834.41
2023-04-19T04:32:41.238Z,98837.22
2023-04-19T04:34:15.281Z,98832.75
2023-04-19T04:35:57.929Z,98836.34
2023-04-19T04:37:34.547Z,98838.03
2023-04-19T04:39:12.115Z,98831.31
2023-04-19T04:40:45.728Z,98837.28
2023-04-19T04:42:22.616Z,98843.28
2023-04-19T04:44:11.473Z,98840.69
2023-04-19T04:45:45.887Z,98848.91
2023-04-19T04:47:19.719Z,98839.25
2023-04-19T04:49:00.094Z,98851.56
2023-04-19T04:50:33.362Z,98846.59
2023-04-19T04:52:08.883Z,98839.94
2023-04-19T04:53:49.649Z,98847.88
2023-04-19T04:55:23.293Z,98851.56
2023-04-19T04:56:56.517Z,98854.28
2023-04-19T04:58:29.856Z,98856.84
2023-04-19T05:00:15.723Z,98851.56
2023-04-19T05:01:59.128Z,98848.94
2023-04-19T05:03:32.526Z,98848.06
2023-04-19T05:05:12.344Z,98848.00
2023-04-19T05:06:45.596Z,98845.41
2023-04-19T05:08:24.952Z,98851.69
2023-04-19T05:09:58.444Z,98843.72
2023-04-19T05:11:37.956Z,98851.56
2023-04-19T05:13:12.147Z,98855.94
2023-04-19T05:14:46.750Z,98847.09
2023-04-19T05:16:20.058Z,98854.88
2023-04-19T05:17:55.097Z,98856.59
2023-04-19T05:19:29.023Z,98851.31
2023-04-19T05:21:10.583Z,98860.03
2023-04-19T05:22:46.090Z,98859.91
2023-04-19T05:24:19.561Z,98866.88
2023-04-19T05:25:53.129Z,98864.31
2023-04-19T05:27:28.978Z,98858.91
2023-04-19T05:29:02.282Z,98863.47
2023-04-19T05:30:50.896Z,98860.03
2023-04-19T05:32:24.152Z,98862.47
2023-04-19T05:34:02.010Z,98866.88
2023-04-19T05:35:35.320Z,98864.06
2023-04-19T05:37:10.352Z,98862.41
2023-04-19T05:38:43.588Z,98865.31
2023-04-19T05:40:17.367Z,98867.88
2023-04-19T05:41:50.704Z,98868.03
2023-04-19T05:43:23.888Z,98868.75
2023-04-19T05:44:57.103Z,98856.59
2023-04-19T05:46:30.652Z,98863.19
2023-04-19T05:48:04.346Z,98865.69
2023-04-19T05:50:18.141Z,98868.09
2023-04-19T05:51:58.007Z,98873.38
2023-04-19T05:53:51.912Z,98872.31
2023-04-19T05:55:25.856Z,98871.50
2023-04-19T05:56:59.215Z,98867.94
2023-04-19T05:58:32.352Z,98874.94
2023-04-19T06:00:06.996Z,98876.78
2023-04-19T06:01:57.015Z,98873.25
2023-04-19T06:03:32.250Z,98876.66
2023-04-19T06:05:10.309Z,98866.38
2023-04-19T06:06:45.131Z,98878.53
2023-04-19T06:08:21.361Z,98875.88
2023-04-19T06:09:56.098Z,98873.25
2023-04-19T06:11:38.855Z,98875.88
2023-04-19T06:13:16.664Z,98882.81
2023-04-19T06:14:49.913Z,98876.53
2023-04-19T06:16:23.586Z,98877.16
2023-04-19T06:17:59.260Z,98881.38
2023-04-19T06:19:34.187Z,98887.41
2023-04-19T06:21:07.402Z,98877.53
2023-04-19T06:22:45.183Z,98877.41
2023-04-19T06:24:18.670Z,98886.41
2023-04-19T06:25:53.147Z,98880.19
2023-04-19T06:27:26.353Z,98885.41
2023-04-19T06:28:59.822Z,98896.75
2023-04-19T06:30:33.215Z,98882.56
2023-04-19T06:32:06.600Z,98878.41
2023-04-19T06:33:39.883Z,98884.56
2023-04-19T06:35:13.443Z,98891.50
2023-04-19T06:36:46.720Z,98893.28
2023-04-19T06:38:20.046Z,98896.88
2023-04-19T06:39:53.176Z,98895.16
2023-04-19T06:41:27.946Z,98893.41
2023-04-19T06:43:01.395Z,98892.72
2023-04-19T06:44:34.617Z,98896.13
2023-04-19T06:46:07.958Z,98888.41
2023-04-19T06:47:41.281Z,98901.41
2023-04-19T06:49:14.558Z,98904.88
2023-04-19T06:50:47.848Z,98905.75
2023-04-19T06:52:22.126Z,98905.75
2023-04-19T06:53:55.542Z,98904.94
2023-04-19T06:55:28.753Z,98901.91
2023-04-19T06:57:03.667Z,98896.50
2023-04-19T06:58:36.907Z,98897.13
2023-04-19T07:00:12.235Z,98898.72
2023-04-19T07:01:45.988Z,98898.56
2023-04-19T07:03:19.450Z,98900.28
2023-04-19T07:04:52.734Z,98903.72
2023-04-19T07:06:27.032Z,98898.50
2023-04-19T07:08:00.436Z,98902.03
2023-04-19T07:09:33.606Z,98907.88
2023-04-19T07:11:07.021Z,98901.59
2023-04-19T07:12:41.966Z,98890.88
2023-04-19T07:14:15.635Z,98905.47
2023-04-19T07:15:49.059Z,98908.06
2023-04-19T07:17:22.191Z,98910.56
2023-04-19T07:18:55.570Z,98910.22
2023-04-19T07:20:29.441Z,98911.03
2023-04-19T07:22:03.320Z,98918.78
2023-04-19T07:23:36.629Z,98911.63
2023-04-19T07:25:10.872Z,98912.41
2023-04-19T07:26:44.497Z,98913.22
2023-04-19T07:28:19.201Z,98916.56
2023-04-19T07:29:53.962Z,98921.66
2023-04-19T07:31:28.120Z,98917.38
2023-04-19T07:33:01.797Z,98912.78
2023-04-19T07:34:34.945Z,98917.13
2023-04-19T07:36:08.929Z,98923.13
2023-04-19T07:37:42.103Z,98917.97
2023-04-19T07:39:16.159Z,98917.66
2023-04-19T07:40:49.486Z,98923.50
2023-04-19T07:42:22.682Z,98915.53
2023-04-19T07:43:57.186Z,98917.59
2023-04-19T07:45:31.752Z,98921.81
2023-04-19T07:47:05.596Z,98917.53
2023-04-19T07:48:39.266Z,98926.13
2023-04-19T07:50:12.742Z,98923.50
2023-04-19T07:51:46.813Z,98920.66
2023-04-19T07:53:20.252Z,98916.94
2023-04-19T07:54:53.423Z,98916.53
2023-04-19T07:56:27.419Z,98915.94
2023-04-19T07:58:00.712Z,98913.00
2023-04-19T07:59:37.320Z,98910.19
2023-04-19T08:01:11.562Z,98912.16
2023-04-19T08:02:46.298Z,98919.72
2023-04-19T08:04:20.958Z,98908.69
2023-04-19T08:05:54.908Z,98910.56
2023-04-19T08:07:28.032Z,98917.13
2023-04-19T08:09:01.336Z,98904.16
2023-04-19T08:10:36.062Z,98897.94
2023-04-19T08:12:10.111Z,98904.00
2023-04-19T08:13:55.110Z,98912.13
2023-04-19T08:17:25.593Z,98906.03
2023-04-19T08:18:59.974Z,98912.91
2023-04-19T08:20:33.260Z,98905.25
2023-04-19T08:22:06.976Z,98899.28
2023-04-19T08:23:47.877Z,98905.38
2023-04-19T08:25:26.700Z,98902.72
2023-04-19T08:27:00.240Z,98890.91
2023-04-19T08:28:33.639Z,98902.69
2023-04-19T08:30:09.728Z,98900.03
2023-04-19T08:31:47.682Z,98896.69
2023-04-19T08:33:21.388Z,98897.31
2023-04-19T08:34:55.662Z,98888.91
2023-04-19T08:36:39.219Z,98883.78
2023-04-19T08:38:16.596Z,98888.16
2023-04-19T08:39:49.894Z,98881.22
2023-04-19T08:41:23.913Z,98891.31
2023-04-19T08:42:58.198Z,98889.28
2023-04-19T08:44:36.854Z,98880.06
2023-04-19T08:46:13.569Z,98887.44
2023-04-19T08:47:59.877Z,98886.75
2023-04-19T08:49:37.827Z,98880.22
2023-04-19T08:51:13.932Z,98885.28
2023-04-19T08:52:55.875Z,98878.16
2023-04-19T08:54:32.380Z,98880.28
2023-04-19T08:56:18.161Z,98876.16
2023-04-19T08:58:09.617Z,98877.47
2023-04-19T08:59:49.120Z,98879.56
2023-04-19T09:03:00.402Z,98884.47
2023-04-19T09:04:37.580Z,98875.28
2023-04-19T09:06:12.330Z,98872.03
2023-04-19T09:07:46.978Z,98865.31
2023-04-19T09:11:01.575Z,98861.81
2023-04-19T09:12:35.222Z,98871.44
2023-04-19T09:14:11.359Z,98862.88
2023-04-19T09:15:44.995Z,98873.06
2023-04-19T09:17:18.414Z,98863.97
2023-04-19T09:19:05.474Z,98865.66
2023-04-19T09:20:49.022Z,98871.19
2023-04-19T09:22:22.340Z,98871.00
2023-04-19T09:23:55.467Z,98861.72
2023-04-19T09:27:05.351Z,98866.84
2023-04-19T09:28:38.857Z,98866.63
2023-04-19T09:30:20.626Z,98864.75
2023-04-19T09:32:00.146Z,98859.41
2023-04-19T09:33:34.703Z,98854.25
2023-04-19T09:35:10.686Z,98854.78
2023-04-19T09:36:44.137Z,98850.75
2023-04-19T09:38:17.705Z,98836.66
2023-04-19T09:39:51.717Z,98847.06
2023-04-19T09:41:25.369Z,98846.34
2023-04-19T09:46:32.404Z,98840.59
2023-04-19T09:48:07.779Z,98837.97
2023-04-19T09:49:48.400Z,98834.72
2023-04-19T09:51:24.407Z,98835.69
2023-04-19T09:52:58.974Z,98832.31
2023-04-19T09:54:33.088Z,98836.72
2023-04-19T09:56:08.298Z,98841.38
2023-04-19T09:57:41.506Z,98834.44
2023-04-19T09:59:20.826Z,98837.44
2023-04-19T10:01:10.719Z,98838.78
2023-04-19T10:02:54.754Z,98826.75
2023-04-19T10:04:38.220Z,98835.31
2023-04-19T10:08:02.363Z,98829.59
2023-04-19T10:09:49.499Z,98827.09
2023-04-19T10:11:28.264Z,98823.25
2023-04-19T10:14:41.806Z,98823.06
2023-04-19T10:16:19.537Z,98833.53
2023-04-19T10:17:53.727Z,98822.53
2023-04-19T10:19:28.540Z,98826.66
2023-04-19T10:21:07.592Z,98825.97
2023-04-19T10:22:42.390Z,98825.53
2023-04-19T10:24:18.672Z,98827.16
2023-04-19T10:25:57.211Z,98825.56
2023-04-19T10:27:30.642Z,98819.72
2023-04-19T10:29:03.786Z,98815.97
2023-04-19T10:30:36.930Z,98809.09
2023-04-19T10:32:14.918Z,98811.97
2023-04-19T10:33:49.645Z,98807.72
2023-04-19T10:35:24.566Z,98812.19
2023-04-19T10:36:59.279Z,98810.22
2023-04-19T10:38:43.316Z,98807.22
2023-04-19T10:41:00.960Z,98800.38
2023-04-19T10:43:07.481Z,98799.09
2023-04-19T10:44:40.787Z,98792.53
2023-04-19T10:46:37.336Z,98801.84
2023-04-19T10:48:33.596Z,98799.50
2023-04-19T10:50:07.528Z,98796.50
2023-04-19T10:51:44.527Z,98793.53
2023-04-19T10:53:53.752Z,98798.84
2023-04-19T10:55:26.960Z,98795.22
2023-04-19T10:57:05.247Z,98791.91
2023-04-19T10:59:11.815Z,98795.47
2023-04-19T11:00:45.002Z,98785.75
2023-04-19T11:02:32.959Z,98794.16
2023-04-19T11:04:06.734Z,98783.75
2023-04-19T11:06:09.674Z,98788.63
2023-04-19T11:07:47.642Z,98786.13
2023-04-19T11:09:24.371Z,98786.91
2023-04-19T11:10:58.753Z,98791.81
2023-04-19T11:12:31.883Z,98786.03
2023-04-19T11:14:06.093Z,98786.47
2023-04-19T11:15:44.365Z,98783.69
2023-04-19T11:17:18.845Z,98783.13
2023-04-19T11:18:52.006Z,98777.81
2023-04-19T11:20:26.289Z,98777.38
2023-04-19T11:22:01.038Z,98775.06
2023-04-19T11:23:34.169Z,98773.94
2023-04-19T11:25:13.432Z,98776.63
2023-04-19T11:26:47.936Z,98777.47
2023-04-19T11:28:22.279Z,98774.34
2023-04-19T11:30:04.382Z,98772.16
2023-04-19T11:31:37.691Z,98783.47
2023-04-19T11:33:14.287Z,98776.63
2023-04-19T11:34:47.823Z,98776.72
2023-04-19T11:36:21.173Z,98775.44
2023-04-19T11:37:55.291Z,98770.47
2023-04-19T11:39:28.748Z,98777.53
2023-04-19T11:41:04.594Z,98775.59
2023-04-19T11:42:37.776Z,98762.78
2023-04-19T11:44:20.264Z,98769.81
2023-04-19T11:45:53.846Z,98766.22
2023-04-19T11:47:27.576Z,98765.56
2023-04-19T11:49:00.771Z,98767.91
2023-04-19T11:50:41.580Z,98766.41
2023-04-19T11:52:22.565Z,98753.59
2023-04-19T11:53:55.809Z,98761.94
2023-04-19T11:55:34.169Z,98763.00
2023-04-19T11:57:09.906Z,98757.97
2023-04-19T11:58:45.234Z,98757.00
2023-04-19T12:00:29.386Z,98754.66
2023-04-19T12:02:10.501Z,98749.31
2023-04-19T12:03:48.025Z,98757.75
2023-04-19T12:05:21.901Z,98748.91
2023-04-19T12:06:59.880Z,98748.69
2023-04-19T12:08:34.823Z,98746.13
2023-04-19T12:10:12.289Z,98744.41
2023-04-19T12:11:46.983Z,98749.94
2023-04-19T12:13:21.559Z,98747.63
2023-04-19T12:14:54.671Z,98739.47
2023-04-19T12:16:29.534Z,98743.38
2023-04-19T12:18:03.783Z,98743.16
2023-04-19T12:19:38.307Z,98735.38
2023-04-19T12:21:12.754Z,98732.78
2023-04-19T12:22:46.523Z,98726.13
2023-04-19T12:24:19.649Z,98727.91
2023-04-19T12:25:53.927Z,98723.56
2023-04-19T12:27:27.079Z,98719.69
2023-04-19T12:29:03.583Z,98721.00
2023-04-19T12:30:37.164Z,98713.09
2023-04-19T12:32:11.728Z,98708.19
2023-04-19T12:33:44.938Z,98712.25
2023-04-19T12:35:18.429Z,98715.66
2023-04-19T12:36:51.546Z,98717.31
2023-04-19T12:38:24.811Z,98712.44
2023-04-19T12:39:57.991Z,98706.84
2023-04-19T12:41:31.573Z,98712.81
2023-04-19T12:43:04.780Z,98708.03
2023-04-19T12:44:39.406Z,98714.78
2023-04-19T12:46:12.709Z,98702.78
2023-04-19T12:47:48.106Z,98704.75
2023-04-19T12:49:21.567Z,98700.88
2023-04-19T12:50:56.236Z,98706.25
2023-04-19T12:52:29.449Z,98701.63
2023-04-19T12:54:03.580Z,98699.31
2023-04-19T12:55:36.823Z,98702.09
2023-04-19T12:57:09.990Z,98686.50
2023-04-19T12:58:43.243Z,98690.38
2023-04-19T13:00:18.713Z,98693.56
2023-04-19T13:01:51.896Z,98688.66
2023-04-19T13:03:26.981Z,98683.09
2023-04-19T13:05:00.298Z,98686.25
2023-04-19T13:06:33.787Z,98682.31
2023-04-19T13:08:07.553Z,98680.06
2023-04-19T13:09:40.770Z,98678.56
2023-04-19T13:11:14.191Z,98680.06
2023-04-19T13:12:47.813Z,98672.22
2023-04-19T13:14:20.952Z,98670.50
2023-04-19T13:15:55.674Z,98674.13
2023-04-19T13:17:28.945Z,98664.34
2023-04-19T13:19:02.219Z,98672.66
2023-04-19T13:20:35.487Z,98678.88
2023-04-19T13:22:08.667Z,98671.69
2023-04-19T13:23:43.772Z,98672.00
2023-04-19T13:25:17.147Z,98660.81
2023-04-19T13:26:50.350Z,98661.28
2023-04-19T13:28:23.770Z,98661.97
2023-04-19T13:29:57.270Z,98657.38
2023-04-19T13:31:32.316Z,98671.47
2023-04-19T13:33:08.202Z,98660.88
2023-04-19T13:34:42.156Z,98656.16
2023-04-19T13:36:15.373Z,98662.78
2023-04-19T13:37:49.235Z,98655.69
2023-04-19T13:39:22.535Z,98661.56
2023-04-19T13:40:56.309Z,98657.16
2023-04-19T13:42:30.395Z,98656.34
2023-04-19T13:44:03.634Z,98649.03
2023-04-19T13:45:37.117Z,98646.78
2023-04-19T13:47:11.785Z,98650.09
2023-04-19T13:48:44.889Z,98647.78
2023-04-19T13:50:18.626Z,98647.34
2023-04-19T13:51:51.863Z,98642.84
2023-04-19T13:53:26.124Z,98655.00
2023-04-19T13:54:59.248Z,98649.56
2023-04-19T13:56:32.769Z,98647.00
2023-04-19T13:58:06.053Z,98641.97
2023-04-19T13:59:39.357Z,98649.78
2023-04-19T14:01:12.595Z,98642.22
2023-04-19T14:02:48.932Z,98648.06
2023-04-19T14:04:24.915Z,98641.19
2023-04-19T14:05:58.767Z,98633.66
2023-04-19T14:07:32.659Z,98626.56
2023-04-19T14:09:06.271Z,98642.25
2023-04-19T14:10:40.657Z,98641.69
2023-04-19T14:12:13.874Z,98640.38
2023-04-19T14:13:48.306Z,98635.31
2023-04-19T14:15:23.469Z,98637.00
2023-04-19T14:16:57.138Z,98636.34
2023-04-19T14:18:31.883Z,98643.38
2023-04-19T14:20:07.507Z,98638.63
2023-04-19T14:21:41.753Z,98638.47
2023-04-19T14:23:14.264Z,98637.44
2023-04-19T14:24:48.432Z,98632.47
2023-04-19T14:26:21.644Z,98634.44
2023-04-19T14:27:55.341Z,98634.00
2023-04-19T14:29:28.674Z,98629.94
2023-04-19T14:31:02.018Z,98625.00
2023-04-19T14:32:35.667Z,98632.56
2023-04-19T14:34:10.893Z,98633.66
2023-04-19T14:35:44.349Z,98628.53
2023-04-19T14:37:17.549Z,98640.56
2023-04-19T14:38:50.743Z,98638.31
2023-04-19T14:40:24.757Z,98636.84
2023-04-19T14:41:58.049Z,98638.06
2023-04-19T14:43:31.499Z,98639.75
2023-04-19T14:45:05.183Z,98649.50
2023-04-19T14:46:38.714Z,98639.53
2023-04-19T14:48:11.993Z,98638.31
2023-04-19T14:49:46.681Z,98641.13
2023-04-19T14:51:20.021Z,98646.25
2023-04-19T14:52:54.999Z,98640.44
2023-04-19T14:54:28.113Z,98635.19
2023-04-19T14:56:04.000Z,98645.41
2023-04-19T14:57:37.167Z,98645.91
2023-04-19T14:59:10.965Z,98645.16
2023-04-19T15:00:44.163Z,98651.22
2023-04-19T15:02:17.416Z,98647.44
2023-04-19T15:03:51.314Z,98650.50
2023-04-19T15:05:28.732Z,98649.66
2023-04-19T15:07:02.009Z,98648.91
2023-04-19T15:08:35.235Z,98652.69
2023-04-19T15:10:09.481Z,98660.06
2023-04-19T15:11:43.116Z,98649.19
2023-04-19T15:13:16.262Z,98646.88
2023-04-19T15:14:49.578Z,98650.69
2023-04-19T15:16:22.902Z,98654.31
2023-04-19T15:17:57.232Z,98657.50
2023-04-19T15:19:32.100Z,98650.44
2023-04-19T15:21:06.935Z,98653.41
2023-04-19T15:22:40.158Z,98627.78
2023-04-19T15:24:13.913Z,98653.78
2023-04-19T15:25:47.641Z,98644.16
2023-04-19T15:27:20.813Z,98652.47
2023-04-19T15:28:55.867Z,98648.25
2023-04-19T15:30:29.326Z,98648.84
2023-04-19T15:32:04.710Z,98645.81
2023-04-19T15:33:37.655Z,98645.78
2023-04-19T15:35:13.880Z,98646.31
2023-04-19T15:36:48.967Z,98638.19
2023-04-19T15:38:23.920Z,98639.13
2023-04-19T15:39:57.116Z,98645.06
2023-04-19T15:41:30.343Z,98638.25
2023-04-19T15:43:03.762Z,98643.38
2023-04-19T15:44:37.276Z,98632.69
2023-04-19T15:46:13.327Z,98626.09
2023-04-19T15:47:46.642Z,98637.50
2023-04-19T15:49:20.764Z,98629.44
2023-04-19T15:50:53.935Z,98632.28
2023-04-19T15:52:28.540Z,98628.09
2023-04-19T15:54:01.727Z,98628.34
2023-04-19T15:55:35.932Z,98631.44
2023-04-19T15:57:09.129Z,98634.13
2023-04-19T15:58:43.202Z,98637.56
2023-04-19T16:00:17.217Z,98633.69
2023-04-19T16:01:50.660Z,98629.19
2023-04-19T16:03:24.003Z,98640.50
2023-04-19T16:04:57.361Z,98629.31
2023-04-19T16:06:30.644Z,98621.44
2023-04-19T16:08:07.204Z,98615.78
2023-04-19T16:09:40.430Z,98626.47
2023-04-19T16:11:13.712Z,98621.47
2023-04-19T16:12:46.915Z,98624.16
2023-04-19T16:14:20.343Z,98622.63
2023-04-19T16:15:53.563Z,98630.00
2023-04-19T16:17:26.766Z,98625.59
2023-04-19T16:18:59.940Z,98627.00
2023-04-19T16:20:33.383Z,98628.41
2023-04-19T16:22:06.605Z,98629.59
2023-04-19T16:23:41.153Z,98635.28
2023-04-19T16:25:14.496Z,98628.34
2023-04-19T16:26:48.494Z,98627.84
2023-04-19T16:28:21.671Z,98634.97
2023-04-19T16:29:54.796Z,98639.72
2023-04-19T16:31:28.176Z,98631.41
2023-04-19T16:33:01.601Z,98631.84
2023-04-19T16:34:34.837Z,98629.94
2023-04-19T16:36:08.085Z,98638.47
2023-04-19T16:37:41.397Z,98636.69
2023-04-19T16:39:16.638Z,98629.06
2023-04-19T16:40:50.268Z,98640.91
2023-04-19T16:42:23.596Z,98639.94
2023-04-19T16:43:56.832Z,98641.88
2023-04-19T16:45:30.817Z,98640.41
2023-04-19T16:47:03.973Z,98644.03
2023-04-19T16:48:37.163Z,98643.59
2023-04-19T16:50:10.438Z,98642.97
2023-04-19T16:51:43.939Z,98650.41
2023-04-19T16:53:17.164Z,98648.09
2023-04-19T16:54:51.903Z,98650.31
2023-04-19T16:56:25.484Z,98648.25
2023-04-19T16:57:59.123Z,98659.34
2023-04-19T16:59:32.251Z,98648.53
2023-04-19T17:01:05.587Z,98656.00
2023-04-19T17:02:39.088Z,98659.94
2023-04-19T17:04:12.956Z,98651.59
2023-04-19T17:05:46.352Z,98658.09
2023-04-19T17:07:19.580Z,98667.25
2023-04-19T17:08:52.743Z,98669.44
2023-04-19T17:10:28.557Z,98679.75
2023-04-19T17:12:02.147Z,98682.81
2023-04-19T17:13:35.441Z,98683.19
2023-04-19T17:15:09.205Z,98681.72
2023-04-19T17:16:42.884Z,98695.03
2023-04-19T17:18:16.236Z,98691.63
2023-04-19T17:19:49.642Z,98693.53
2023-04-19T17:21:22.978Z,98700.78
2023-04-19T17:22:56.566Z,98700.78
2023-04-19T17:24:29.805Z,98704.19
2023-04-19T17:26:04.388Z,98706.94
2023-04-19T17:27:39.022Z,98707.03
2023-04-19T17:29:12.673Z,98710.09
2023-04-19T17:30:45.884Z,98712.53
2023-04-19T17:32:19.222Z,98714.19
2023-04-19T17:33:52.361Z,98720.34
2023-04-19T17:35:26.460Z,98721.03
2023-04-19T17:36:59.579Z,98721.84
2023-04-19T17:38:32.993Z,98722.53
2023-04-19T17:40:07.597Z,98728.50
2023-04-19T17:41:43.222Z,98726.25
2023-04-19T17:43:16.514Z,98729.09
2023-04-19T17:44:49.745Z,98732.91
2023-04-19T17:46:23.025Z,98734.81
2023-04-19T17:47:56.491Z,98742.03
2023-04-19T17:49:29.712Z,98745.16
2023-04-19T17:51:02.817Z,98738.97
2023-04-19T17:52:36.272Z,98733.88
2023-04-19T17:54:09.870Z,98744.69
2023-04-19T17:55:43.123Z,98755.34
2023-04-19T17:57:17.789Z,98761.63
2023-04-19T17:58:51.320Z,98755.25
2023-04-19T18:00:24.695Z,98770.34
2023-04-19T18:01:57.971Z,98770.34
2023-04-19T18:03:31.742Z,98765.03
2023-04-19T18:05:05.484Z,98775.50
2023-04-19T18:06:38.972Z,98775.31
2023-04-19T18:08:13.542Z,98777.00
2023-04-19T18:09:46.713Z,98776.81
2023-04-19T18:11:19.908Z,98777.00
2023-04-19T18:12:55.129Z,98772.25
2023-04-19T18:14:28.272Z,98781.56
2023-04-19T18:16:01.477Z,98771.97
2023-04-19T18:17:34.888Z,98779.00
2023-04-19T18:19:08.232Z,98781.47
2023-04-19T18:20:41.386Z,98782.31
2023-04-19T18:22:14.688Z,98785.19
2023-04-19T18:23:48.053Z,98784.59
2023-04-19T18:25:21.926Z,98792.88
2023-04-19T18:26:55.134Z,98792.19
2023-04-19T18:28:29.740Z,98800.16
2023-04-19T18:30:04.211Z,98798.28
2023-04-19T18:31:37.938Z,98805.13
2023-04-19T18:33:11.381Z,98806.81
2023-04-19T18:34:44.565Z,98801.69
2023-04-19T18:36:17.871Z,98801.13
2023-04-19T18:37:51.283Z,98804.13
2023-04-19T18:39:24.473Z,98803.56
2023-04-19T18:40:57.704Z,98801.25
2023-04-19T18:42:30.882Z,98805.81
2023-04-19T18:44:34.864Z,98804.13
2023-04-19T18:46:00.331Z,98801.75
2023-04-19T18:47:34.012Z,98810.50
2023-04-19T18:49:08.036Z,98813.94
2023-04-19T18:50:41.313Z,98816.59
2023-04-19T18:52:15.080Z,98812.22